sensor_id;sensor_type;location;lat;lon;timestamp;temperature;humidity
63966;DHT22;50151;52.030;5.350;2023-01-10T08:07:56;5.70;99.90
63966;DHT22;50151;52.030;5.350;2023-01-10T08:10:26;5.60;99.90
63966;DHT22;50151;52.030;5.350;2023-01-10T08:12:53;5.70;99.90
63966;DHT22;50151;52.030;5.350;2023-01-10T08:15:19;5.60;99.90
63966;DHT22;50151;52.030;5.350;2023-01-10T08:17:46;5.60;99.90
63966;DHT22;50151;52.030;5.350;2023-01-10T08:20:13;5.70;99.90
63966;DHT22;50151;52.030;5.350;2023-01-10T08:22:40;5.70;99.90
63966;DHT22;50151;52.030;5.350;2023-01-10T08:25:08;5.80;99.90
63966;DHT22;50151;52.030;5.350;2023-01-10T08:27:35;5.70;99.90
63966;DHT22;50151;52.030;5.350;2023-01-10T08:30:03;5.80;99.90
63966;DHT22;50151;52.030;5.350;2023-01-10T08:32:30;5.80;99.90
63966;DHT22;50151;52.030;5.350;2023-01-10T08:34:57;5.80;99.90
63966;DHT22;50151;52.030;5.350;2023-01-10T08:37:24;5.80;99.90
63966;DHT22;50151;52.030;5.350;2023-01-10T08:39:50;5.80;99.90
63966;DHT22;50151;52.030;5.350;2023-01-10T08:42:17;5.80;99.90
63966;DHT22;50151;52.030;5.350;2023-01-10T08:44:44;5.90;99.90
63966;DHT22;50151;52.030;5.350;2023-01-10T08:47:11;5.90;99.90
63966;DHT22;50151;52.030;5.350;2023-01-10T08:49:37;5.90;99.90
63966;DHT22;50151;52.030;5.350;2023-01-10T08:52:04;5.90;99.90
63966;DHT22;50151;52.030;5.350;2023-01-10T08:54:31;5.90;99.90
63966;DHT22;50151;52.030;5.350;2023-01-10T08:56:58;6.00;99.90
63966;DHT22;50151;52.030;5.350;2023-01-10T08:59:25;6.00;99.90
63966;DHT22;50151;52.030;5.350;2023-01-10T09:01:52;6.00;99.90
63966;DHT22;50151;52.030;5.350;2023-01-10T09:04:19;6.00;99.90
63966;DHT22;50151;52.030;5.350;2023-01-10T09:06:46;6.00;99.90
63966;DHT22;50151;52.030;5.350;2023-01-10T09:09:13;6.00;99.90
63966;DHT22;50151;52.030;5.350;2023-01-10T09:11:39;6.00;99.90
63966;DHT22;50151;52.030;5.350;2023-01-10T09:14:07;6.00;99.90
63966;DHT22;50151;52.030;5.350;2023-01-10T09:16:34;6.00;99.90
63966;DHT22;50151;52.030;5.350;2023-01-10T09:19:00;6.00;99.90
63966;DHT22;50151;52.030;5.350;2023-01-10T09:21:27;6.00;99.90
63966;DHT22;50151;52.030;5.350;2023-01-10T09:23:54;6.00;99.90
63966;DHT22;50151;52.030;5.350;2023-01-10T09:26:21;6.00;99.90
63966;DHT22;50151;52.030;5.350;2023-01-10T09:28:48;6.00;99.90
63966;DHT22;50151;52.030;5.350;2023-01-10T09:31:14;6.00;99.90
63966;DHT22;50151;52.030;5.350;2023-01-10T09:33:41;6.00;99.90
63966;DHT22;50151;52.030;5.350;2023-01-10T09:36:12;6.00;99.90
63966;DHT22;50151;52.030;5.350;2023-01-10T09:38:41;6.00;99.90
63966;DHT22;50151;52.030;5.350;2023-01-10T09:47:01;6.00;99.90
63966;DHT22;50151;52.030;5.350;2023-01-10T09:52:47;6.00;99.90
63966;DHT22;50151;52.030;5.350;2023-01-10T09:55:29;6.00;99.90
63966;DHT22;50151;52.030;5.350;2023-01-10T09:58:00;6.00;99.90
63966;DHT22;50151;52.030;5.350;2023-01-10T10:03:35;6.00;99.90
63966;DHT22;50151;52.030;5.350;2023-01-10T10:06:10;6.00;99.90
63966;DHT22;50151;52.030;5.350;2023-01-10T10:08:40;6.10;99.90
63966;DHT22;50151;52.030;5.350;2023-01-10T10:30:55;6.00;99.90
63966;DHT22;50151;52.030;5.350;2023-01-10T10:39:20;6.00;99.90
63966;DHT22;50151;52.030;5.350;2023-01-10T10:41:50;6.10;99.90
63966;DHT22;50151;52.030;5.350;2023-01-10T10:46:51;6.10;99.90
63966;DHT22;50151;52.030;5.350;2023-01-10T10:49:36;6.00;99.90
63966;DHT22;50151;52.030;5.350;2023-01-10T10:52:23;6.10;99.90
63966;DHT22;50151;52.030;5.350;2023-01-10T10:54:51;6.10;99.90
63966;DHT22;50151;52.030;5.350;2023-01-10T10:57:22;6.00;99.90
63966;DHT22;50151;52.030;5.350;2023-01-10T10:59:49;6.10;99.90
63966;DHT22;50151;52.030;5.350;2023-01-10T11:02:28;6.10;99.90
63966;DHT22;50151;52.030;5.350;2023-01-10T11:05:04;6.10;99.90
63966;DHT22;50151;52.030;5.350;2023-01-10T11:07:33;6.10;99.90
63966;DHT22;50151;52.030;5.350;2023-01-10T11:10:03;6.10;99.90
63966;DHT22;50151;52.030;5.350;2023-01-10T11:12:34;6.20;99.90
63966;DHT22;50151;52.030;5.350;2023-01-10T11:15:03;6.10;99.90
63966;DHT22;50151;52.030;5.350;2023-01-10T11:17:31;6.10;99.90
63966;DHT22;50151;52.030;5.350;2023-01-10T11:20:14;6.20;99.90
63966;DHT22;50151;52.030;5.350;2023-01-10T11:22:49;6.20;99.90
63966;DHT22;50151;52.030;5.350;2023-01-10T11:25:18;6.20;99.90
63966;DHT22;50151;52.030;5.350;2023-01-10T11:27:49;6.30;99.90
63966;DHT22;50151;52.030;5.350;2023-01-10T11:30:20;6.30;99.90
63966;DHT22;50151;52.030;5.350;2023-01-10T11:32:51;6.30;99.90
63966;DHT22;50151;52.030;5.350;2023-01-10T11:35:36;6.30;99.90
63966;DHT22;50151;52.030;5.350;2023-01-10T11:40:53;6.40;99.90
63966;DHT22;50151;52.030;5.350;2023-01-10T11:45:58;6.40;99.90
63966;DHT22;50151;52.030;5.350;2023-01-10T11:48:49;6.40;99.90
63966;DHT22;50151;52.030;5.350;2023-01-10T11:51:39;6.50;99.90
63966;DHT22;50151;52.030;5.350;2023-01-10T11:54:15;6.50;99.90
63966;DHT22;50151;52.030;5.350;2023-01-10T11:57:06;6.50;99.90
63966;DHT22;50151;52.030;5.350;2023-01-10T11:59:34;6.50;99.90
63966;DHT22;50151;52.030;5.350;2023-01-10T12:02:21;6.50;99.90
63966;DHT22;50151;52.030;5.350;2023-01-10T12:04:50;6.50;99.90
63966;DHT22;50151;52.030;5.350;2023-01-10T12:07:17;6.50;99.90
63966;DHT22;50151;52.030;5.350;2023-01-10T12:09:59;6.60;99.90
63966;DHT22;50151;52.030;5.350;2023-01-10T12:12:34;6.60;99.90
63966;DHT22;50151;52.030;5.350;2023-01-10T12:15:25;6.50;99.90
63966;DHT22;50151;52.030;5.350;2023-01-10T12:17:55;6.60;99.90
63966;DHT22;50151;52.030;5.350;2023-01-10T12:20:25;6.60;99.90
63966;DHT22;50151;52.030;5.350;2023-01-10T12:22:58;6.60;99.90
63966;DHT22;50151;52.030;5.350;2023-01-10T12:25:42;6.60;99.90
63966;DHT22;50151;52.030;5.350;2023-01-10T12:28:29;6.70;99.90
63966;DHT22;50151;52.030;5.350;2023-01-10T12:30:58;6.70;99.90
63966;DHT22;50151;52.030;5.350;2023-01-10T12:33:31;6.70;99.90
63966;DHT22;50151;52.030;5.350;2023-01-10T12:44:36;6.70;99.90
63966;DHT22;50151;52.030;5.350;2023-01-10T12:47:31;6.70;99.90
63966;DHT22;50151;52.030;5.350;2023-01-10T12:50:08;6.70;99.90
63966;DHT22;50151;52.030;5.350;2023-01-10T12:52:47;6.70;99.90
63966;DHT22;50151;52.030;5.350;2023-01-10T12:55:16;6.80;99.90
63966;DHT22;50151;52.030;5.350;2023-01-10T12:57:47;6.80;99.90
63966;DHT22;50151;52.030;5.350;2023-01-10T13:00:21;6.80;99.90
63966;DHT22;50151;52.030;5.350;2023-01-10T13:02:54;6.80;99.90
63966;DHT22;50151;52.030;5.350;2023-01-10T13:05:24;6.80;99.90
63966;DHT22;50151;52.030;5.350;2023-01-10T13:08:06;6.80;99.90
63966;DHT22;50151;52.030;5.350;2023-01-10T13:10:39;6.80;99.90
63966;DHT22;50151;52.030;5.350;2023-01-10T13:13:20;6.90;99.90
63966;DHT22;50151;52.030;5.350;2023-01-10T13:16:18;6.90;99.90
63966;DHT22;50151;52.030;5.350;2023-01-10T13:21:47;7.00;99.90
63966;DHT22;50151;52.030;5.350;2023-01-10T13:24:21;7.00;99.90
63966;DHT22;50151;52.030;5.350;2023-01-10T13:26:54;7.00;99.90
63966;DHT22;50151;52.030;5.350;2023-01-10T13:29:31;7.00;99.90
63966;DHT22;50151;52.030;5.350;2023-01-10T13:32:20;7.00;99.90
63966;DHT22;50151;52.030;5.350;2023-01-10T13:34:48;7.00;99.90
63966;DHT22;50151;52.030;5.350;2023-01-10T13:37:29;7.10;99.90
63966;DHT22;50151;52.030;5.350;2023-01-10T13:39:59;7.10;99.90
63966;DHT22;50151;52.030;5.350;2023-01-10T13:42:31;7.10;99.90
63966;DHT22;50151;52.030;5.350;2023-01-10T13:45:23;7.20;99.90
63966;DHT22;50151;52.030;5.350;2023-01-10T14:00:50;7.30;99.90
63966;DHT22;50151;52.030;5.350;2023-01-10T14:08:54;7.30;99.90
63966;DHT22;50151;52.030;5.350;2023-01-10T14:11:24;7.30;99.90
63966;DHT22;50151;52.030;5.350;2023-01-10T14:13:57;7.20;99.90
63966;DHT22;50151;52.030;5.350;2023-01-10T14:16:39;7.20;99.90
63966;DHT22;50151;52.030;5.350;2023-01-10T14:19:18;7.20;99.90
63966;DHT22;50151;52.030;5.350;2023-01-10T14:21:51;7.10;99.90
63966;DHT22;50151;52.030;5.350;2023-01-10T14:26:52;7.00;99.90
63966;DHT22;50151;52.030;5.350;2023-01-10T14:29:23;7.00;99.90
63966;DHT22;50151;52.030;5.350;2023-01-10T14:31:51;7.00;99.90
63966;DHT22;50151;52.030;5.350;2023-01-10T14:34:21;6.90;99.90
63966;DHT22;50151;52.030;5.350;2023-01-10T14:37:00;7.00;99.90
63966;DHT22;50151;52.030;5.350;2023-01-10T14:39:29;6.90;99.90
63966;DHT22;50151;52.030;5.350;2023-01-10T14:42:06;6.90;99.90
63966;DHT22;50151;52.030;5.350;2023-01-10T14:44:40;6.90;99.90
63966;DHT22;50151;52.030;5.350;2023-01-10T14:47:29;6.90;99.90
63966;DHT22;50151;52.030;5.350;2023-01-10T14:49:56;6.90;99.90
63966;DHT22;50151;52.030;5.350;2023-01-10T14:52:33;6.80;99.90
63966;DHT22;50151;52.030;5.350;2023-01-10T14:55:13;6.80;99.90
63966;DHT22;50151;52.030;5.350;2023-01-10T14:57:59;6.80;99.90
63966;DHT22;50151;52.030;5.350;2023-01-10T15:02:52;6.70;99.90
63966;DHT22;50151;52.030;5.350;2023-01-10T15:05:23;6.70;99.90
63966;DHT22;50151;52.030;5.350;2023-01-10T15:07:53;6.70;99.90
63966;DHT22;50151;52.030;5.350;2023-01-10T15:10:30;6.70;99.90
63966;DHT22;50151;52.030;5.350;2023-01-10T15:13:00;6.70;99.90
63966;DHT22;50151;52.030;5.350;2023-01-10T15:15:37;6.70;99.90
63966;DHT22;50151;52.030;5.350;2023-01-10T15:21:02;6.60;99.90
63966;DHT22;50151;52.030;5.350;2023-01-10T15:23:37;6.60;99.90
63966;DHT22;50151;52.030;5.350;2023-01-10T15:26:30;6.70;99.90
63966;DHT22;50151;52.030;5.350;2023-01-10T15:29:20;6.60;99.90
63966;DHT22;50151;52.030;5.350;2023-01-10T15:31:48;6.60;99.90
63966;DHT22;50151;52.030;5.350;2023-01-10T15:34:18;6.60;99.90
63966;DHT22;50151;52.030;5.350;2023-01-10T15:36:52;6.60;99.90
63966;DHT22;50151;52.030;5.350;2023-01-10T15:39:22;6.60;99.90
63966;DHT22;50151;52.030;5.350;2023-01-10T15:41:55;6.60;99.90
63966;DHT22;50151;52.030;5.350;2023-01-10T15:44:23;6.60;99.90
63966;DHT22;50151;52.030;5.350;2023-01-10T15:46:58;6.60;99.90
63966;DHT22;50151;52.030;5.350;2023-01-10T15:49:25;6.50;99.90
63966;DHT22;50151;52.030;5.350;2023-01-10T15:51:52;6.50;99.90
63966;DHT22;50151;52.030;5.350;2023-01-10T15:56:51;6.60;99.90
63966;DHT22;50151;52.030;5.350;2023-01-10T15:59:32;6.50;99.90
63966;DHT22;50151;52.030;5.350;2023-01-10T16:02:04;6.50;99.90
63966;DHT22;50151;52.030;5.350;2023-01-10T16:04:33;6.50;99.90
63966;DHT22;50151;52.030;5.350;2023-01-10T16:07:27;6.50;99.90
63966;DHT22;50151;52.030;5.350;2023-01-10T16:10:17;6.50;99.90
63966;DHT22;50151;52.030;5.350;2023-01-10T16:12:44;6.50;99.90
63966;DHT22;50151;52.030;5.350;2023-01-10T16:15:35;6.40;99.90
63966;DHT22;50151;52.030;5.350;2023-01-10T16:18:02;6.40;99.90
63966;DHT22;50151;52.030;5.350;2023-01-10T16:20:35;6.40;99.90
63966;DHT22;50151;52.030;5.350;2023-01-10T16:23:03;6.40;99.90
63966;DHT22;50151;52.030;5.350;2023-01-10T16:25:37;6.40;99.90
63966;DHT22;50151;52.030;5.350;2023-01-10T16:28:05;6.30;99.90
63966;DHT22;50151;52.030;5.350;2023-01-10T16:30:33;6.30;99.90
63966;DHT22;50151;52.030;5.350;2023-01-10T16:33:09;6.30;99.90
63966;DHT22;50151;52.030;5.350;2023-01-10T16:35:36;6.30;99.90
63966;DHT22;50151;52.030;5.350;2023-01-10T16:38:03;6.30;99.90
63966;DHT22;50151;52.030;5.350;2023-01-10T16:40:36;6.30;99.90
63966;DHT22;50151;52.030;5.350;2023-01-10T16:43:03;6.30;99.90
63966;DHT22;50151;52.030;5.350;2023-01-10T16:48:16;6.20;99.90
63966;DHT22;50151;52.030;5.350;2023-01-10T16:50:44;6.20;99.90
63966;DHT22;50151;52.030;5.350;2023-01-10T16:53:15;6.20;99.90
63966;DHT22;50151;52.030;5.350;2023-01-10T16:55:48;6.20;99.90
63966;DHT22;50151;52.030;5.350;2023-01-10T16:58:16;6.20;99.90
63966;DHT22;50151;52.030;5.350;2023-01-10T17:00:45;6.20;99.90
63966;DHT22;50151;52.030;5.350;2023-01-10T17:03:17;6.20;99.90
63966;DHT22;50151;52.030;5.350;2023-01-10T17:05:45;6.20;99.90
63966;DHT22;50151;52.030;5.350;2023-01-10T17:08:21;6.20;99.90
63966;DHT22;50151;52.030;5.350;2023-01-10T17:10:51;6.20;99.90
63966;DHT22;50151;52.030;5.350;2023-01-10T17:13:23;6.20;99.90
63966;DHT22;50151;52.030;5.350;2023-01-10T17:15:51;6.20;99.90
63966;DHT22;50151;52.030;5.350;2023-01-10T17:18:17;6.30;99.90
63966;DHT22;50151;52.030;5.350;2023-01-10T17:20:44;6.20;99.90
63966;DHT22;50151;52.030;5.350;2023-01-10T17:23:11;6.20;99.90
63966;DHT22;50151;52.030;5.350;2023-01-10T17:25:41;6.20;99.90
63966;DHT22;50151;52.030;5.350;2023-01-10T17:28:11;6.30;99.90
63966;DHT22;50151;52.030;5.350;2023-01-10T17:30:39;6.30;99.90
63966;DHT22;50151;52.030;5.350;2023-01-10T17:33:05;6.30;99.90
63966;DHT22;50151;52.030;5.350;2023-01-10T17:35:40;6.30;99.90
63966;DHT22;50151;52.030;5.350;2023-01-10T17:38:12;6.40;99.90
63966;DHT22;50151;52.030;5.350;2023-01-10T17:40:44;6.30;99.90
63966;DHT22;50151;52.030;5.350;2023-01-10T17:43:12;6.40;99.90
63966;DHT22;50151;52.030;5.350;2023-01-10T17:45:40;6.40;99.90
63966;DHT22;50151;52.030;5.350;2023-01-10T17:48:07;6.40;99.90
63966;DHT22;50151;52.030;5.350;2023-01-10T17:50:34;6.50;99.90
63966;DHT22;50151;52.030;5.350;2023-01-10T17:53:01;6.50;99.90
63966;DHT22;50151;52.030;5.350;2023-01-10T17:55:28;6.40;99.90
63966;DHT22;50151;52.030;5.350;2023-01-10T17:57:55;6.50;99.90
63966;DHT22;50151;52.030;5.350;2023-01-10T18:00:22;6.50;99.90
63966;DHT22;50151;52.030;5.350;2023-01-10T18:02:49;6.50;99.90
63966;DHT22;50151;52.030;5.350;2023-01-10T18:05:16;6.50;99.90
63966;DHT22;50151;52.030;5.350;2023-01-10T18:07:43;6.60;99.90
63966;DHT22;50151;52.030;5.350;2023-01-10T18:10:09;6.60;99.90
63966;DHT22;50151;52.030;5.350;2023-01-10T18:12:36;6.60;99.90
63966;DHT22;50151;52.030;5.350;2023-01-10T18:15:04;6.60;99.90
63966;DHT22;50151;52.030;5.350;2023-01-10T18:17:32;6.70;99.90
63966;DHT22;50151;52.030;5.350;2023-01-10T18:19:59;6.70;99.90
63966;DHT22;50151;52.030;5.350;2023-01-10T18:22:25;6.70;99.90
63966;DHT22;50151;52.030;5.350;2023-01-10T18:25:11;6.80;99.90
63966;DHT22;50151;52.030;5.350;2023-01-10T18:27:38;6.80;99.90
63966;DHT22;50151;52.030;5.350;2023-01-10T18:30:05;6.80;99.90
63966;DHT22;50151;52.030;5.350;2023-01-10T18:32:32;6.80;99.90
63966;DHT22;50151;52.030;5.350;2023-01-10T18:34:59;6.90;99.90
63966;DHT22;50151;52.030;5.350;2023-01-10T18:37:25;6.90;99.90
63966;DHT22;50151;52.030;5.350;2023-01-10T18:39:52;6.90;99.90
63966;DHT22;50151;52.030;5.350;2023-01-10T18:42:19;7.00;99.90
63966;DHT22;50151;52.030;5.350;2023-01-10T18:44:45;6.90;99.90
63966;DHT22;50151;52.030;5.350;2023-01-10T18:47:12;7.00;99.90
63966;DHT22;50151;52.030;5.350;2023-01-10T18:49:39;7.00;99.90
63966;DHT22;50151;52.030;5.350;2023-01-10T18:52:06;7.10;99.90
63966;DHT22;50151;52.030;5.350;2023-01-10T18:54:33;7.10;99.90
63966;DHT22;50151;52.030;5.350;2023-01-10T18:57:00;7.10;99.90
63966;DHT22;50151;52.030;5.350;2023-01-10T18:59:26;7.20;99.90
63966;DHT22;50151;52.030;5.350;2023-01-10T19:01:53;7.20;99.90
63966;DHT22;50151;52.030;5.350;2023-01-10T19:04:20;7.20;99.90
63966;DHT22;50151;52.030;5.350;2023-01-10T19:06:47;7.30;99.90
63966;DHT22;50151;52.030;5.350;2023-01-10T19:09:13;7.30;99.90
63966;DHT22;50151;52.030;5.350;2023-01-10T19:11:40;7.30;99.90
63966;DHT22;50151;52.030;5.350;2023-01-10T19:14:07;7.40;99.90
63966;DHT22;50151;52.030;5.350;2023-01-10T19:16:34;7.40;99.90
63966;DHT22;50151;52.030;5.350;2023-01-10T19:19:03;7.40;99.90
63966;DHT22;50151;52.030;5.350;2023-01-10T19:21:32;7.50;99.90
63966;DHT22;50151;52.030;5.350;2023-01-10T19:24:05;7.40;99.90
63966;DHT22;50151;52.030;5.350;2023-01-10T19:26:32;7.50;99.90
63966;DHT22;50151;52.030;5.350;2023-01-10T19:29:02;7.50;99.90
63966;DHT22;50151;52.030;5.350;2023-01-10T19:31:29;7.60;99.90
63966;DHT22;50151;52.030;5.350;2023-01-10T19:33:59;7.60;99.90
63966;DHT22;50151;52.030;5.350;2023-01-10T19:36:27;7.60;99.90
63966;DHT22;50151;52.030;5.350;2023-01-10T19:38:55;7.70;99.90
63966;DHT22;50151;52.030;5.350;2023-01-10T19:41:25;7.60;99.90
63966;DHT22;50151;52.030;5.350;2023-01-10T19:44:01;7.70;99.90
63966;DHT22;50151;52.030;5.350;2023-01-10T19:46:29;7.70;99.90
63966;DHT22;50151;52.030;5.350;2023-01-10T19:48:58;7.70;99.90
63966;DHT22;50151;52.030;5.350;2023-01-10T19:51:27;7.70;99.90
63966;DHT22;50151;52.030;5.350;2023-01-10T19:53:54;7.80;99.90
63966;DHT22;50151;52.030;5.350;2023-01-10T19:56:21;7.80;99.90
63966;DHT22;50151;52.030;5.350;2023-01-10T19:58:49;7.90;99.90
63966;DHT22;50151;52.030;5.350;2023-01-10T20:01:19;7.90;99.90
63966;DHT22;50151;52.030;5.350;2023-01-10T20:03:46;8.00;99.90
63966;DHT22;50151;52.030;5.350;2023-01-10T20:06:15;8.00;99.90
63966;DHT22;50151;52.030;5.350;2023-01-10T20:08:44;8.00;99.90
63966;DHT22;50151;52.030;5.350;2023-01-10T20:11:12;8.00;99.90
63966;DHT22;50151;52.030;5.350;2023-01-10T20:13:41;8.00;99.90
63966;DHT22;50151;52.030;5.350;2023-01-10T20:16:12;8.00;99.90
63966;DHT22;50151;52.030;5.350;2023-01-10T20:18:40;8.00;99.90
63966;DHT22;50151;52.030;5.350;2023-01-10T20:21:08;8.10;99.90
63966;DHT22;50151;52.030;5.350;2023-01-10T20:23:36;8.10;99.90
63966;DHT22;50151;52.030;5.350;2023-01-10T20:28:42;8.10;99.90
63966;DHT22;50151;52.030;5.350;2023-01-10T20:31:15;8.10;99.90
63966;DHT22;50151;52.030;5.350;2023-01-10T20:33:42;8.20;99.90
63966;DHT22;50151;52.030;5.350;2023-01-10T20:36:15;8.20;99.90
63966;DHT22;50151;52.030;5.350;2023-01-10T20:38:42;8.20;99.90
63966;DHT22;50151;52.030;5.350;2023-01-10T20:44:07;8.30;99.90
63966;DHT22;50151;52.030;5.350;2023-01-10T20:46:34;8.30;99.90
63966;DHT22;50151;52.030;5.350;2023-01-10T20:49:02;8.30;99.90
63966;DHT22;50151;52.030;5.350;2023-01-10T20:51:31;8.30;99.90
63966;DHT22;50151;52.030;5.350;2023-01-10T20:53:58;8.40;99.90
63966;DHT22;50151;52.030;5.350;2023-01-10T20:56:28;8.40;99.90
63966;DHT22;50151;52.030;5.350;2023-01-10T20:58:55;8.40;99.90
63966;DHT22;50151;52.030;5.350;2023-01-10T21:01:23;8.40;99.90
63966;DHT22;50151;52.030;5.350;2023-01-10T21:04:01;8.40;99.90
63966;DHT22;50151;52.030;5.350;2023-01-10T21:06:28;8.40;99.90
63966;DHT22;50151;52.030;5.350;2023-01-10T21:08:54;8.50;99.90
63966;DHT22;50151;52.030;5.350;2023-01-10T21:11:22;8.50;99.90
63966;DHT22;50151;52.030;5.350;2023-01-10T21:13:48;8.50;99.90
63966;DHT22;50151;52.030;5.350;2023-01-10T21:16:17;8.50;99.90
63966;DHT22;50151;52.030;5.350;2023-01-10T21:18:45;8.50;99.90
63966;DHT22;50151;52.030;5.350;2023-01-10T21:21:15;8.50;99.90
63966;DHT22;50151;52.030;5.350;2023-01-10T21:23:42;8.50;99.90
63966;DHT22;50151;52.030;5.350;2023-01-10T21:26:11;8.50;99.90
63966;DHT22;50151;52.030;5.350;2023-01-10T21:28:40;8.50;99.90
63966;DHT22;50151;52.030;5.350;2023-01-10T21:31:16;8.50;99.90
63966;DHT22;50151;52.030;5.350;2023-01-10T21:33:43;8.50;99.90
63966;DHT22;50151;52.030;5.350;2023-01-10T21:36:10;8.50;99.90
63966;DHT22;50151;52.030;5.350;2023-01-10T21:38:38;8.50;99.90
63966;DHT22;50151;52.030;5.350;2023-01-10T21:41:09;8.50;99.90
63966;DHT22;50151;52.030;5.350;2023-01-10T21:43:37;8.50;99.90
63966;DHT22;50151;52.030;5.350;2023-01-10T21:46:04;8.50;99.90
63966;DHT22;50151;52.030;5.350;2023-01-10T21:48:31;8.50;99.90
63966;DHT22;50151;52.030;5.350;2023-01-10T21:50:58;8.50;99.90
63966;DHT22;50151;52.030;5.350;2023-01-10T21:53:24;8.50;99.90
63966;DHT22;50151;52.030;5.350;2023-01-10T21:55:51;8.60;99.90
63966;DHT22;50151;52.030;5.350;2023-01-10T21:58:18;8.60;99.90
63966;DHT22;50151;52.030;5.350;2023-01-10T22:00:45;8.60;99.90
63966;DHT22;50151;52.030;5.350;2023-01-10T22:03:11;8.60;99.90
63966;DHT22;50151;52.030;5.350;2023-01-10T22:05:38;8.60;99.90
63966;DHT22;50151;52.030;5.350;2023-01-10T22:08:05;8.60;99.90
63966;DHT22;50151;52.030;5.350;2023-01-10T22:10:31;8.70;99.90
63966;DHT22;50151;52.030;5.350;2023-01-10T22:12:58;8.70;99.90
63966;DHT22;50151;52.030;5.350;2023-01-10T22:15:25;8.70;99.90
63966;DHT22;50151;52.030;5.350;2023-01-10T22:17:52;8.80;99.90
63966;DHT22;50151;52.030;5.350;2023-01-10T22:20:19;8.80;99.90
63966;DHT22;50151;52.030;5.350;2023-01-10T22:22:46;8.90;99.90
63966;DHT22;50151;52.030;5.350;2023-01-10T22:25:12;8.90;99.90
63966;DHT22;50151;52.030;5.350;2023-01-10T22:27:39;8.90;99.90
63966;DHT22;50151;52.030;5.350;2023-01-10T22:30:09;8.90;99.90
63966;DHT22;50151;52.030;5.350;2023-01-10T22:32:36;9.00;99.90
63966;DHT22;50151;52.030;5.350;2023-01-10T22:35:03;9.00;99.90
63966;DHT22;50151;52.030;5.350;2023-01-10T22:37:30;9.10;99.90
63966;DHT22;50151;52.030;5.350;2023-01-10T22:39:56;9.20;99.90
63966;DHT22;50151;52.030;5.350;2023-01-10T22:42:23;9.20;99.90
63966;DHT22;50151;52.030;5.350;2023-01-10T22:44:50;9.20;99.90
63966;DHT22;50151;52.030;5.350;2023-01-10T22:47:16;9.20;99.90
63966;DHT22;50151;52.030;5.350;2023-01-10T22:49:43;9.20;99.90
63966;DHT22;50151;52.030;5.350;2023-01-10T22:52:10;9.30;99.90
63966;DHT22;50151;52.030;5.350;2023-01-10T22:54:36;9.30;99.90
63966;DHT22;50151;52.030;5.350;2023-01-10T22:57:03;9.30;99.90
63966;DHT22;50151;52.030;5.350;2023-01-10T22:59:30;9.40;99.90
63966;DHT22;50151;52.030;5.350;2023-01-10T23:02:07;9.40;99.90
63966;DHT22;50151;52.030;5.350;2023-01-10T23:04:34;9.40;99.90
63966;DHT22;50151;52.030;5.350;2023-01-10T23:07:00;9.50;99.90
63966;DHT22;50151;52.030;5.350;2023-01-10T23:09:27;9.50;99.90
63966;DHT22;50151;52.030;5.350;2023-01-10T23:11:53;9.50;99.90
